Time;durP1;ratioP1;P1;durP2;ratioP2;P2;SDS_P1;SDS_P2;PMS_P1;PMS_P2;Temp;Humidity;BMP_temperature;BMP_pressure;BME280_temperature;BME280_humidity;BME280_pressure;Samples;Min_cycle;Max_cycle;Signal;HPM_P1;HPM_P2
2022/04/01 00:00:23;;;;;;;6.25;1.05;;;17.10;99.90;;;;;;5073653;28;20548;-80
2022/04/01 00:02:54;;;;;;;8.07;1.20;;;17.20;99.90;;;;;;5073144;28;20193;-83
2022/04/01 00:05:25;;;;;;;6.43;1.33;;;17.20;99.90;;;;;;5071134;28;20243;-81
2022/04/01 00:07:56;;;;;;;7.60;1.30;;;17.40;99.90;;;;;;5074197;28;20219;-80
2022/04/01 00:10:26;;;;;;;7.78;1.77;;;17.50;99.90;;;;;;5069261;28;20189;-79
2022/04/01 00:12:58;;;;;;;9.05;1.02;;;17.50;99.90;;;;;;5070701;28;20627;-78
2022/04/01 00:15:30;;;;;;;5.40;1.25;;;17.50;99.90;;;;;;5073029;28;20195;-80
2022/04/01 00:18:02;;;;;;;5.05;1.30;;;17.50;99.90;;;;;;5069825;28;20208;-80
2022/04/01 00:20:33;;;;;;;6.68;1.25;;;17.60;99.90;;;;;;5069639;28;20661;-84
2022/04/01 00:23:04;;;;;;;7.22;1.30;;;17.70;99.90;;;;;;5070621;28;20190;-80
2022/04/01 00:25:35;;;;;;;5.88;1.05;;;17.70;99.90;;;;;;5062425;28;20197;-82
2022/04/01 00:28:06;;;;;;;11.10;1.50;;;17.70;99.90;;;;;;5064750;28;20201;-84
2022/04/01 00:30:39;;;;;;;5.85;1.27;;;17.80;99.90;;;;;;5072008;28;20644;-81
2022/04/01 00:33:10;;;;;;;8.65;1.38;;;17.80;99.90;;;;;;5067402;28;20203;-83
2022/04/01 00:35:41;;;;;;;4.65;1.40;;;17.90;99.90;;;;;;5062402;28;20302;-80
2022/04/01 00:38:11;;;;;;;6.57;1.27;;;18.00;99.90;;;;;;5063618;28;20688;-75
2022/04/01 00:40:42;;;;;;;5.57;1.30;;;18.00;99.90;;;;;;5070170;28;20197;-80
2022/04/01 00:43:13;;;;;;;7.18;1.10;;;18.00;99.90;;;;;;5074112;28;20563;-81
2022/04/01 00:45:46;;;;;;;6.88;1.23;;;18.00;99.90;;;;;;5074504;28;20196;-81
2022/04/01 00:48:18;;;;;;;6.05;1.10;;;18.10;99.90;;;;;;5069010;28;20193;-81
2022/04/01 00:50:50;;;;;;;5.80;1.00;;;18.10;99.90;;;;;;5072875;28;20193;-80
2022/04/01 00:53:21;;;;;;;6.07;1.13;;;18.20;99.90;;;;;;5069843;28;20193;-79
2022/04/01 00:55:53;;;;;;;4.97;1.10;;;18.20;99.90;;;;;;5063442;28;20256;-81
2022/04/01 00:58:25;;;;;;;5.10;1.00;;;18.10;99.90;;;;;;5072114;28;20209;-79
2022/04/01 01:00:57;;;;;;;4.63;0.90;;;18.20;99.90;;;;;;5071705;28;20198;-83
2022/04/01 01:03:28;;;;;;;5.93;0.88;;;18.30;99.90;;;;;;5074353;28;20659;-83
2022/04/01 01:05:59;;;;;;;4.32;0.90;;;18.40;99.90;;;;;;5078091;28;20628;-83
2022/04/01 01:08:30;;;;;;;2.75;0.60;;;18.40;99.90;;;;;;5079348;28;20184;-81
2022/04/01 01:11:02;;;;;;;4.45;0.73;;;18.40;99.90;;;;;;5075257;28;20272;-80
2022/04/01 01:13:33;;;;;;;3.20;0.98;;;18.50;99.90;;;;;;5083228;28;20229;-79
2022/04/01 01:16:07;;;;;;;3.30;0.80;;;18.60;99.90;;;;;;5076045;28;20196;-83
2022/04/01 01:18:38;;;;;;;3.58;0.75;;;18.60;99.90;;;;;;5073693;28;20671;-81
2022/04/01 01:21:09;;;;;;;3.80;1.00;;;18.70;99.90;;;;;;5077456;28;20846;-76
2022/04/01 01:23:43;;;;;;;1.63;0.68;;;18.70;99.90;;;;;;5071523;28;20195;-82
2022/04/01 01:26:16;;;;;;;3.42;0.73;;;18.80;99.90;;;;;;5077166;28;20195;-75
2022/04/01 01:28:46;;;;;;;4.68;0.73;;;18.80;99.90;;;;;;5071012;28;20664;-85
2022/04/01 01:31:17;;;;;;;2.95;0.80;;;18.70;99.90;;;;;;5073922;28;20181;-80
2022/04/01 01:33:48;;;;;;;3.55;1.00;;;18.70;99.90;;;;;;5073692;28;20193;-81
2022/04/01 01:36:19;;;;;;;2.42;0.70;;;18.70;99.90;;;;;;5078283;28;20196;-82
2022/04/01 01:38:49;;;;;;;5.10;1.00;;;18.60;99.90;;;;;;5072481;28;20224;-81
2022/04/01 01:41:22;;;;;;;2.92;0.88;;;18.60;99.90;;;;;;5073436;28;20200;-80
2022/04/01 01:43:53;;;;;;;3.78;0.80;;;18.70;99.90;;;;;;5071030;28;20197;-80
2022/04/01 01:46:24;;;;;;;4.15;0.80;;;18.70;99.90;;;;;;5074491;28;20267;-85
2022/04/01 01:48:55;;;;;;;4.47;0.80;;;18.80;99.90;;;;;;5070883;28;20706;-87
2022/04/01 01:57:02;;;;;;;3.63;1.35;;;18.50;99.90;;;;;;5073760;28;20203;-83
2022/04/01 01:59:32;;;;;;;4.45;1.10;;;18.50;99.90;;;;;;5076239;28;21452;-83
2022/04/01 02:02:05;;;;;;;6.43;0.82;;;18.50;99.90;;;;;;5068736;28;20182;-80
2022/04/01 02:04:38;;;;;;;2.75;0.95;;;18.50;99.90;;;;;;5073332;28;20665;-85
2022/04/01 02:07:10;;;;;;;5.28;0.90;;;18.40;99.90;;;;;;5074694;28;20219;-82
2022/04/01 02:09:46;;;;;;;1.80;0.60;;;18.40;99.90;;;;;;5074045;28;20729;-79
2022/04/01 02:12:19;;;;;;;4.20;0.70;;;18.40;99.90;;;;;;5076388;28;20189;-81
2022/04/01 02:14:49;;;;;;;4.00;0.80;;;18.40;99.90;;;;;;5074755;28;20216;-83
2022/04/01 02:17:20;;;;;;;3.67;0.90;;;18.40;99.90;;;;;;5071551;28;20189;-82
2022/04/01 02:19:51;;;;;;;3.65;0.80;;;18.50;99.90;;;;;;5071071;28;20276;-81
2022/04/01 02:22:21;;;;;;;4.15;0.75;;;18.50;99.90;;;;;;5072807;28;20242;-82
2022/04/01 02:24:53;;;;;;;3.50;0.80;;;18.50;99.90;;;;;;5080072;28;20636;-80
2022/04/01 02:27:27;;;;;;;2.95;0.77;;;18.50;99.90;;;;;;5081798;28;20196;-87
2022/04/01 02:29:58;;;;;;;3.03;0.70;;;18.40;99.90;;;;;;5071995;28;20184;-86
2022/04/01 02:32:29;;;;;;;2.30;0.60;;;18.50;99.90;;;;;;5073688;28;20258;-80
2022/04/01 02:34:59;;;;;;;4.70;0.80;;;18.50;99.90;;;;;;5073699;28;20221;-80
2022/04/01 02:37:30;;;;;;;4.32;1.10;;;18.50;99.90;;;;;;5074468;28;20193;-83
2022/04/01 02:40:01;;;;;;;1.85;0.60;;;18.50;99.90;;;;;;5074187;28;20251;-83
2022/04/01 02:42:33;;;;;;;13.02;2.15;;;18.70;99.90;;;;;;5073047;28;20185;-82
2022/04/01 02:45:05;;;;;;;5.18;1.00;;;18.80;99.90;;;;;;5074160;28;20185;-84
2022/04/01 02:47:38;;;;;;;3.88;0.80;;;18.80;99.90;;;;;;5073326;28;20189;-82
2022/04/01 02:50:10;;;;;;;3.83;0.80;;;18.80;99.90;;;;;;5077424;28;20275;-84
2022/04/01 02:52:41;;;;;;;2.10;0.63;;;18.80;99.90;;;;;;5072557;28;20189;-85
2022/04/01 02:55:12;;;;;;;4.43;0.75;;;18.80;99.90;;;;;;5072416;28;20307;-75
2022/04/01 02:57:45;;;;;;;5.57;0.80;;;18.80;99.90;;;;;;5076808;28;20215;-77
2022/04/01 03:00:21;;;;;;;3.55;0.90;;;18.80;99.90;;;;;;5076779;28;20216;-76
2022/04/01 03:02:52;;;;;;;3.15;0.80;;;18.80;99.90;;;;;;5073888;28;20200;-80
2022/04/01 03:05:22;;;;;;;2.45;0.70;;;18.70;99.90;;;;;;5066153;28;20197;-79
2022/04/01 03:07:53;;;;;;;2.92;0.90;;;18.70;99.90;;;;;;5082006;28;20199;-83
2022/04/01 03:10:24;;;;;;;4.38;0.90;;;18.70;99.90;;;;;;5079897;28;20581;-76
2022/04/01 03:12:57;;;;;;;3.67;0.88;;;18.70;99.90;;;;;;5082023;28;20277;-74
2022/04/01 03:15:28;;;;;;;3.78;0.70;;;18.80;99.90;;;;;;5078577;28;20629;-75
2022/04/01 03:17:59;;;;;;;5.53;1.15;;;18.90;99.90;;;;;;5076424;28;20280;-76
2022/04/01 03:20:35;;;;;;;2.50;0.90;;;18.90;99.90;;;;;;5078000;28;20189;-77
2022/04/01 03:23:06;;;;;;;5.38;1.08;;;18.90;99.90;;;;;;5073801;28;20184;-85
2022/04/01 03:25:37;;;;;;;4.40;1.00;;;18.90;99.90;;;;;;5076777;28;20243;-85
2022/04/01 03:28:10;;;;;;;7.45;1.20;;;18.80;99.90;;;;;;5077836;28;20287;-76
2022/04/01 03:30:41;;;;;;;3.92;0.80;;;18.80;99.90;;;;;;5075272;28;20189;-89
2022/04/01 03:33:12;;;;;;;4.47;1.00;;;18.80;99.90;;;;;;5075035;28;20197;-87
2022/04/01 03:35:42;;;;;;;4.00;1.10;;;18.70;99.90;;;;;;5074621;28;20535;-89
2022/04/01 03:38:13;;;;;;;5.65;1.13;;;18.70;99.90;;;;;;5074612;28;20229;-80
2022/04/01 03:40:46;;;;;;;3.70;1.23;;;18.60;99.90;;;;;;5072068;28;20192;-78
2022/04/01 03:43:20;;;;;;;4.97;1.00;;;18.60;99.90;;;;;;5073645;28;20193;-78
2022/04/01 03:45:51;;;;;;;3.92;0.88;;;18.50;99.90;;;;;;5076958;28;20191;-75
2022/04/01 03:48:31;;;;;;;7.20;0.80;;;18.50;99.90;;;;;;5072131;28;20243;-83
2022/04/01 03:51:04;;;;;;;5.95;1.08;;;18.50;99.90;;;;;;5071060;28;20279;-75
2022/04/01 03:53:36;;;;;;;6.20;0.80;;;18.50;99.90;;;;;;5074572;28;20219;-77
2022/04/01 03:56:08;;;;;;;5.90;1.05;;;18.50;99.90;;;;;;5076249;28;20192;-76
2022/04/01 03:58:47;;;;;;;4.20;0.88;;;18.40;99.90;;;;;;5076382;28;20209;-78
2022/04/01 04:01:18;;;;;;;3.53;0.80;;;18.40;99.90;;;;;;5074374;28;20593;-77
2022/04/01 04:03:52;;;;;;;3.95;0.95;;;18.50;99.90;;;;;;5072497;28;20188;-77
2022/04/01 04:06:24;;;;;;;5.93;1.00;;;18.50;99.90;;;;;;5073004;28;20188;-77
2022/04/01 04:08:58;;;;;;;3.35;1.10;;;18.50;99.90;;;;;;5068805;28;20543;-75
2022/04/01 04:11:31;;;;;;;4.35;0.90;;;18.60;99.90;;;;;;5071583;28;20219;-75
2022/04/01 04:14:04;;;;;;;2.90;0.70;;;18.60;99.90;;;;;;5072127;28;20232;-81
2022/04/01 04:16:42;;;;;;;7.00;1.23;;;18.70;99.90;;;;;;5069856;28;20189;-75
2022/04/01 04:19:18;;;;;;;4.50;1.05;;;18.70;99.90;;;;;;5075347;28;20208;-77
2022/04/01 04:21:57;;;;;;;5.20;1.30;;;18.70;99.90;;;;;;5067808;28;20184;-75
2022/04/01 04:24:32;;;;;;;5.20;1.10;;;18.70;99.90;;;;;;5070479;28;20188;-78
2022/04/01 04:27:11;;;;;;;7.22;1.30;;;18.70;99.90;;;;;;5078195;28;20598;-74
2022/04/01 04:29:51;;;;;;;4.90;1.05;;;18.60;99.90;;;;;;5072699;28;20193;-76
2022/04/01 04:32:32;;;;;;;3.55;0.90;;;18.60;99.90;;;;;;5077441;28;20188;-74
2022/04/01 04:35:06;;;;;;;4.45;0.90;;;18.60;99.90;;;;;;5072768;28;20196;-74
2022/04/01 04:37:40;;;;;;;6.10;0.93;;;18.60;99.90;;;;;;5068429;28;20192;-77
2022/04/01 04:40:12;;;;;;;7.72;1.10;;;18.50;99.90;;;;;;5072860;28;20710;-74
2022/04/01 04:42:47;;;;;;;6.20;1.13;;;18.50;99.90;;;;;;5074064;28;20192;-74
2022/04/01 04:45:21;;;;;;;9.38;1.30;;;18.50;99.90;;;;;;5075086;28;20702;-77
2022/04/01 04:47:52;;;;;;;6.13;1.15;;;18.60;99.90;;;;;;5071427;28;20192;-74
2022/04/01 04:50:24;;;;;;;4.38;1.08;;;18.60;99.90;;;;;;5073259;28;20199;-80
2022/04/01 04:52:56;;;;;;;5.03;0.80;;;18.60;99.90;;;;;;5074164;28;20644;-76
2022/04/01 04:55:27;;;;;;;6.10;1.40;;;18.60;99.90;;;;;;5072503;28;20227;-75
2022/04/01 04:57:58;;;;;;;7.75;1.30;;;18.60;99.90;;;;;;5078369;28;20671;-76
2022/04/01 05:00:30;;;;;;;6.78;1.10;;;18.70;99.90;;;;;;5072834;28;20213;-74
2022/04/01 05:03:24;;;;;;;5.18;0.90;;;18.80;99.90;;;;;;5077183;28;20193;-84
2022/04/01 05:05:56;;;;;;;4.53;1.10;;;18.80;99.90;;;;;;5067630;28;20216;-82
2022/04/01 05:08:37;;;;;;;4.03;1.15;;;18.60;99.90;;;;;;5070618;28;20644;-74
2022/04/01 05:11:12;;;;;;;3.78;0.73;;;18.60;99.90;;;;;;5070779;28;20240;-78
2022/04/01 05:13:54;;;;;;;4.20;1.05;;;18.70;99.90;;;;;;5071504;28;20523;-84
2022/04/01 05:16:35;;;;;;;6.28;1.27;;;18.70;99.90;;;;;;5073709;28;20228;-83
2022/04/01 05:19:13;;;;;;;6.15;1.33;;;18.80;99.90;;;;;;5074733;28;20728;-82
2022/04/01 05:21:46;;;;;;;3.72;0.82;;;18.70;99.90;;;;;;5080179;28;20635;-82
2022/04/01 05:24:20;;;;;;;4.80;1.00;;;18.70;99.90;;;;;;5077387;28;20660;-86
2022/04/01 05:26:54;;;;;;;6.60;1.05;;;18.60;99.90;;;;;;5075419;28;20188;-85
2022/04/01 05:29:31;;;;;;;5.57;1.17;;;18.50;99.90;;;;;;5071908;28;20242;-82
2022/04/01 05:32:07;;;;;;;5.90;1.33;;;18.50;99.90;;;;;;5072761;28;20193;-79
2022/04/01 05:34:43;;;;;;;4.90;0.90;;;18.50;99.90;;;;;;5074384;28;20196;-74
2022/04/01 05:37:13;;;;;;;5.47;0.82;;;18.40;99.90;;;;;;5086406;28;20188;-74
2022/04/01 05:39:46;;;;;;;5.43;1.05;;;18.40;99.90;;;;;;5082555;28;20228;-74
2022/04/01 05:42:18;;;;;;;5.97;1.13;;;18.30;99.90;;;;;;5075306;28;20189;-76
2022/04/01 05:44:50;;;;;;;6.13;1.10;;;18.30;99.90;;;;;;5075311;28;20280;-81
2022/04/01 05:47:25;;;;;;;5.13;1.33;;;18.30;99.90;;;;;;5072838;28;20189;-78
2022/04/01 05:49:59;;;;;;;6.72;1.05;;;18.30;99.90;;;;;;5073324;28;20348;-74
2022/04/01 05:52:31;;;;;;;4.28;1.08;;;18.30;99.90;;;;;;5073673;28;20183;-74
2022/04/01 05:55:01;;;;;;;5.10;1.33;;;18.20;99.90;;;;;;5070190;28;20221;-76
2022/04/01 05:57:32;;;;;;;7.20;1.23;;;18.20;99.90;;;;;;5070485;28;20189;-76
2022/04/01 06:00:05;;;;;;;5.07;1.10;;;18.20;99.90;;;;;;5068931;28;20613;-73
2022/04/01 06:03:06;;;;;;;6.90;0.93;;;18.20;99.90;;;;;;5066840;28;20189;-81
2022/04/01 06:05:41;;;;;;;5.57;0.98;;;18.20;99.90;;;;;;5068552;28;20193;-74
2022/04/01 06:08:21;;;;;;;7.72;1.20;;;18.20;99.90;;;;;;5065789;28;20250;-77
2022/04/01 06:11:02;;;;;;;6.82;1.10;;;18.20;99.90;;;;;;5073282;28;20189;-79
2022/04/01 06:13:49;;;;;;;4.43;0.98;;;18.20;99.90;;;;;;5073087;28;20188;-73
2022/04/01 06:16:26;;;;;;;6.72;1.63;;;18.20;99.90;;;;;;5075639;28;20192;-73
2022/04/01 06:19:10;;;;;;;6.97;1.10;;;18.10;99.90;;;;;;5068944;28;20200;-75
2022/04/01 06:21:45;;;;;;;5.35;1.00;;;18.20;99.90;;;;;;5080996;28;20181;-79
2022/04/01 06:24:26;;;;;;;8.77;1.20;;;18.20;99.90;;;;;;5076341;28;20242;-75
2022/04/01 06:27:02;;;;;;;3.63;1.00;;;18.20;99.90;;;;;;5078676;28;20632;-74
2022/04/01 06:29:39;;;;;;;5.68;1.40;;;18.30;99.90;;;;;;5078526;28;20181;-77
2022/04/01 06:32:13;;;;;;;6.70;1.25;;;18.20;99.90;;;;;;5071960;28;20192;-73
2022/04/01 06:35:03;;;;;;;5.75;1.02;;;18.20;99.90;;;;;;5081244;28;20224;-74
2022/04/01 06:37:38;;;;;;;3.65;0.77;;;18.10;99.90;;;;;;5077719;28;20192;-73
2022/04/01 06:40:11;;;;;;;5.80;1.02;;;18.20;99.90;;;;;;5082969;28;20251;-74
2022/04/01 06:42:43;;;;;;;4.60;1.08;;;18.20;99.90;;;;;;5090805;28;20223;-73
2022/04/01 06:45:15;;;;;;;7.10;1.00;;;18.20;99.90;;;;;;5079148;28;20258;-75
2022/04/01 06:47:46;;;;;;;4.90;0.85;;;18.20;99.90;;;;;;5082099;28;20227;-75
2022/04/01 06:50:20;;;;;;;5.40;0.95;;;18.10;99.90;;;;;;5073514;28;20279;-76
2022/04/01 06:52:51;;;;;;;7.18;1.10;;;18.10;99.90;;;;;;5084078;28;20195;-76
2022/04/01 06:55:22;;;;;;;4.82;1.00;;;18.10;99.90;;;;;;5084363;28;20242;-73
2022/04/01 06:57:53;;;;;;;3.55;0.88;;;18.10;99.90;;;;;;5069558;28;20200;-81
2022/04/01 07:00:23;;;;;;;6.38;0.95;;;18.10;99.90;;;;;;5068169;28;20213;-81
2022/04/01 07:02:54;;;;;;;4.00;1.00;;;18.00;99.90;;;;;;5083205;28;20185;-76
2022/04/01 07:05:27;;;;;;;8.60;1.27;;;18.00;99.90;;;;;;5070366;28;20221;-81
2022/04/01 07:07:59;;;;;;;2.95;0.80;;;18.00;99.90;;;;;;5069257;28;20548;-82
2022/04/01 07:10:30;;;;;;;3.92;0.80;;;18.00;99.90;;;;;;5072487;28;20714;-82
2022/04/01 07:13:01;;;;;;;4.93;0.80;;;18.10;99.90;;;;;;5077288;28;20272;-88
2022/04/01 07:15:31;;;;;;;4.43;0.82;;;18.10;99.90;;;;;;5086872;28;20192;-84
2022/04/01 07:18:02;;;;;;;5.82;1.00;;;18.10;99.90;;;;;;5072421;28;20193;-81
2022/04/01 07:20:35;;;;;;;3.33;1.05;;;18.10;99.90;;;;;;5069842;28;20224;-79
2022/04/01 07:23:05;;;;;;;3.80;0.80;;;18.00;99.90;;;;;;5088131;28;20301;-82
2022/04/01 07:25:37;;;;;;;5.65;1.10;;;18.00;99.90;;;;;;5079878;28;20192;-78
2022/04/01 07:28:09;;;;;;;2.72;0.90;;;18.00;99.90;;;;;;5078365;28;20262;-80
2022/04/01 07:30:40;;;;;;;6.10;1.15;;;18.00;99.90;;;;;;5070569;28;20640;-81
2022/04/01 07:33:13;;;;;;;5.65;0.77;;;18.00;99.90;;;;;;5080428;28;20226;-82
2022/04/01 07:35:49;;;;;;;5.55;0.95;;;18.00;99.90;;;;;;5071673;28;20640;-82
2022/04/01 07:38:20;;;;;;;3.60;0.80;;;18.00;99.90;;;;;;5067841;28;20231;-77
2022/04/01 07:40:50;;;;;;;5.60;1.17;;;18.00;99.90;;;;;;5066616;28;20210;-83
2022/04/01 07:43:21;;;;;;;3.92;1.02;;;17.90;99.90;;;;;;5071343;28;20197;-82
2022/04/01 07:45:52;;;;;;;3.28;0.90;;;18.00;99.90;;;;;;5066846;28;20181;-77
2022/04/01 07:48:23;;;;;;;3.83;0.82;;;18.00;99.90;;;;;;5082893;28;20188;-83
2022/04/01 07:50:56;;;;;;;4.30;0.90;;;18.00;99.90;;;;;;5075436;28;20196;-79
2022/04/01 07:53:26;;;;;;;4.57;0.85;;;18.00;99.90;;;;;;5067215;28;20181;-80
2022/04/01 07:55:57;;;;;;;3.38;0.75;;;17.90;99.90;;;;;;5077564;28;20221;-83
2022/04/01 07:58:27;;;;;;;5.07;1.20;;;17.90;99.90;;;;;;5077674;28;20181;-82
2022/04/01 08:00:59;;;;;;;4.85;0.90;;;17.90;99.90;;;;;;5070341;28;20267;-83
2022/04/01 08:03:29;;;;;;;3.70;0.90;;;17.90;99.90;;;;;;5070004;28;20188;-81
2022/04/01 08:06:02;;;;;;;4.80;0.98;;;17.80;99.90;;;;;;5066121;28;20258;-82
2022/04/01 08:08:32;;;;;;;3.22;0.68;;;17.90;99.90;;;;;;5071204;28;20509;-82
2022/04/01 08:11:03;;;;;;;3.30;0.73;;;17.90;99.90;;;;;;5073327;28;20193;-80
2022/04/01 08:13:34;;;;;;;4.55;0.90;;;17.80;99.90;;;;;;5066007;28;20185;-82
2022/04/01 08:16:04;;;;;;;6.32;1.00;;;17.80;99.90;;;;;;5069936;28;20247;-83
2022/04/01 08:18:35;;;;;;;4.07;0.95;;;17.80;99.90;;;;;;5074505;28;20241;-81
2022/04/01 08:21:07;;;;;;;4.35;1.00;;;17.80;99.90;;;;;;5059803;28;20279;-82
2022/04/01 08:23:38;;;;;;;2.53;0.93;;;17.80;99.90;;;;;;5066362;28;20528;-82
2022/04/01 08:26:10;;;;;;;4.22;1.25;;;17.70;99.90;;;;;;5074251;28;20243;-81
2022/04/01 08:28:42;;;;;;;4.20;1.00;;;17.80;99.90;;;;;;5067937;28;20185;-84
2022/04/01 08:31:13;;;;;;;6.18;1.10;;;17.70;99.90;;;;;;5068596;28;20193;-81
2022/04/01 08:33:45;;;;;;;4.05;0.90;;;17.70;99.90;;;;;;5083640;28;20189;-81
2022/04/01 08:36:19;;;;;;;3.25;1.00;;;17.70;99.90;;;;;;5068134;28;20223;-81
2022/04/01 08:38:49;;;;;;;5.10;1.10;;;17.60;99.90;;;;;;5079819;28;20263;-81
2022/04/01 08:41:21;;;;;;;4.45;0.95;;;17.60;99.90;;;;;;5068815;28;20228;-76
2022/04/01 08:43:52;;;;;;;4.82;1.20;;;17.60;99.90;;;;;;5073717;28;20239;-82
2022/04/01 08:46:25;;;;;;;5.18;1.17;;;17.60;99.90;;;;;;5073460;28;20193;-80
2022/04/01 08:48:56;;;;;;;3.92;1.15;;;17.60;99.90;;;;;;5085211;28;20188;-80
2022/04/01 08:51:30;;;;;;;4.05;0.90;;;17.60;99.90;;;;;;5071609;28;20193;-80
2022/04/01 08:54:02;;;;;;;4.35;0.93;;;17.60;99.90;;;;;;5071836;28;20212;-82
2022/04/01 08:56:33;;;;;;;7.80;1.05;;;17.60;99.90;;;;;;5081240;28;20208;-78
2022/04/01 08:59:03;;;;;;;3.30;0.80;;;17.60;99.90;;;;;;5072589;28;20197;-81
2022/04/01 09:01:44;;;;;;;3.47;0.80;;;17.60;99.90;;;;;;5075246;28;20270;-84
2022/04/01 09:04:26;;;;;;;6.43;0.98;;;17.60;99.90;;;;;;5076089;28;20266;-79
2022/04/01 09:06:58;;;;;;;3.65;0.95;;;17.60;99.90;;;;;;5070897;28;20184;-82
2022/04/01 09:09:30;;;;;;;2.80;0.88;;;17.60;99.90;;;;;;5086959;28;20242;-81
2022/04/01 09:12:14;;;;;;;5.60;1.02;;;17.60;99.90;;;;;;5087495;28;20192;-84
2022/04/01 09:14:52;;;;;;;7.45;1.10;;;17.60;99.90;;;;;;5075631;28;20678;-75
2022/04/01 09:17:23;;;;;;;3.95;0.80;;;17.60;99.90;;;;;;5070248;28;20239;-81
2022/04/01 09:20:07;;;;;;;2.70;0.77;;;17.60;99.90;;;;;;5081891;28;20182;-82
2022/04/01 09:22:40;;;;;;;4.68;1.00;;;17.50;99.90;;;;;;5077745;28;20250;-84
2022/04/01 09:25:12;;;;;;;3.22;1.10;;;17.50;99.90;;;;;;5079986;28;20184;-84
2022/04/01 09:27:46;;;;;;;4.70;1.10;;;17.50;99.90;;;;;;5075866;28;20204;-80
2022/04/01 09:30:18;;;;;;;3.45;1.08;;;17.40;99.90;;;;;;5083712;28;20225;-80
2022/04/01 09:32:51;;;;;;;6.10;1.08;;;17.40;99.90;;;;;;5077693;28;20322;-80
2022/04/01 09:35:24;;;;;;;4.22;0.90;;;17.40;99.90;;;;;;5058566;28;20193;-82
2022/04/01 09:37:58;;;;;;;3.90;1.00;;;17.40;99.90;;;;;;5070720;28;20193;-82
2022/04/01 09:40:30;;;;;;;5.47;1.02;;;17.40;99.90;;;;;;5083001;28;20216;-85
2022/04/01 09:43:01;;;;;;;4.90;0.90;;;17.40;99.90;;;;;;5076100;28;20193;-80
2022/04/01 09:45:35;;;;;;;2.97;0.80;;;17.40;99.90;;;;;;5069385;28;20189;-84
2022/04/01 09:48:08;;;;;;;3.95;0.98;;;17.40;99.90;;;;;;5065198;28;20188;-86
2022/04/01 09:50:40;;;;;;;4.63;1.20;;;17.30;99.90;;;;;;5068059;28;20201;-81
2022/04/01 09:53:14;;;;;;;5.82;1.10;;;17.30;99.90;;;;;;5082943;28;20189;-85
2022/04/01 09:55:46;;;;;;;5.80;0.88;;;17.30;99.90;;;;;;5073003;28;20212;-81
2022/04/01 09:58:18;;;;;;;4.75;0.90;;;17.30;99.90;;;;;;5071078;28;20276;-78
2022/04/01 10:00:50;;;;;;;4.63;1.20;;;17.20;99.90;;;;;;5091130;28;20209;-79
2022/04/01 10:03:21;;;;;;;4.68;1.20;;;17.20;99.90;;;;;;5080894;28;20189;-80
2022/04/01 10:05:52;;;;;;;8.07;1.30;;;17.20;99.90;;;;;;5081248;28;20184;-82
2022/04/01 10:08:29;;;;;;;5.28;1.20;;;17.20;99.90;;;;;;5074307;28;20185;-81
2022/04/01 10:11:01;;;;;;;4.35;1.23;;;17.10;99.90;;;;;;5081254;28;20223;-75
2022/04/01 10:13:33;;;;;;;6.18;1.05;;;17.10;99.90;;;;;;5075200;28;20628;-82
2022/04/01 10:16:06;;;;;;;6.15;1.10;;;17.10;99.90;;;;;;5084854;28;20188;-79
2022/04/01 10:18:37;;;;;;;4.65;1.00;;;17.10;99.90;;;;;;5077840;28;20629;-81
2022/04/01 10:21:08;;;;;;;5.38;1.10;;;17.10;99.90;;;;;;5076017;28;20548;-85
2022/04/01 10:23:48;;;;;;;6.15;1.05;;;17.10;99.90;;;;;;5082553;28;20189;-81
2022/04/01 10:26:21;;;;;;;6.78;1.50;;;17.00;99.90;;;;;;5077755;28;20576;-78
2022/04/01 10:28:53;;;;;;;5.45;1.08;;;17.00;99.90;;;;;;5067418;28;20227;-82
2022/04/01 10:31:25;;;;;;;6.15;0.95;;;17.00;99.90;;;;;;5071081;28;20189;-74
2022/04/01 10:34:16;;;;;;;5.82;1.00;;;17.00;99.90;;;;;;5071909;28;20195;-78
2022/04/01 10:36:57;;;;;;;3.60;1.08;;;17.00;99.90;;;;;;5081647;28;20196;-78
2022/04/01 10:39:30;;;;;;;5.82;0.90;;;17.00;99.90;;;;;;5070158;28;20223;-73
2022/04/01 10:42:12;;;;;;;6.00;1.00;;;17.00;99.90;;;;;;5076027;28;20277;-73
2022/04/01 10:44:53;;;;;;;6.03;1.00;;;17.00;99.90;;;;;;5072248;28;20434;-79
2022/04/01 10:51:36;;;;;;;4.22;1.13;;;17.00;99.90;;;;;;5074546;28;20193;-84
2022/04/01 10:53:44;;;;;;;7.22;1.02;;;16.90;99.90;;;;;;5075168;28;20187;-72
2022/04/01 10:56:38;;;;;;;4.25;1.02;;;16.90;99.90;;;;;;5074755;28;20240;-73
2022/04/01 10:59:13;;;;;;;5.65;1.10;;;16.90;99.90;;;;;;5072952;28;20200;-77
2022/04/01 11:02:04;;;;;;;5.22;1.30;;;16.90;99.90;;;;;;5067083;28;20232;-73
2022/04/01 11:04:37;;;;;;;5.90;1.00;;;16.90;99.90;;;;;;5073115;28;20197;-73
2022/04/01 11:07:09;;;;;;;3.78;0.80;;;16.90;99.90;;;;;;5083261;28;20247;-73
2022/04/01 11:09:42;;;;;;;6.30;1.00;;;16.90;99.90;;;;;;5077743;28;20220;-73
2022/04/01 11:12:34;;;;;;;4.20;1.02;;;16.80;99.90;;;;;;5080483;28;20188;-72
2022/04/01 11:15:29;;;;;;;5.03;1.40;;;16.80;99.90;;;;;;5088383;28;20188;-73
2022/04/01 11:18:10;;;;;;;6.93;1.40;;;16.90;99.90;;;;;;5073037;28;20193;-74
2022/04/01 11:20:57;;;;;;;7.50;1.20;;;16.80;99.90;;;;;;5075146;28;20597;-73
2022/04/01 11:23:30;;;;;;;6.28;1.17;;;16.80;99.90;;;;;;5076337;28;20213;-74
2022/04/01 11:26:01;;;;;;;6.40;1.02;;;16.80;99.90;;;;;;5076477;28;20193;-73
2022/04/01 11:28:42;;;;;;;4.85;1.17;;;16.80;99.90;;;;;;5081706;28;20195;-75
2022/04/01 11:31:18;;;;;;;6.75;1.52;;;16.80;99.90;;;;;;5074934;28;20193;-74
2022/04/01 11:34:07;;;;;;;6.40;1.05;;;16.80;99.90;;;;;;5078474;28;20234;-72
2022/04/01 11:36:38;;;;;;;5.22;1.00;;;16.80;99.90;;;;;;5080403;28;20217;-73
2022/04/01 11:39:18;;;;;;;7.93;1.33;;;16.80;99.90;;;;;;5072007;28;20252;-74
2022/04/01 11:41:54;;;;;;;5.63;1.10;;;16.80;99.90;;;;;;5063162;28;20254;-72
2022/04/01 11:44:30;;;;;;;3.33;0.85;;;16.80;99.90;;;;;;5079598;28;20192;-73
2022/04/01 11:47:01;;;;;;;6.40;1.40;;;16.70;99.90;;;;;;5077812;28;20275;-74
2022/04/01 11:49:32;;;;;;;4.05;1.13;;;16.80;99.90;;;;;;5073129;28;20181;-72
2022/04/01 11:52:04;;;;;;;6.65;1.10;;;16.80;99.90;;;;;;5080069;28;20193;-74
2022/04/01 11:54:34;;;;;;;7.40;1.20;;;16.70;99.90;;;;;;5071428;28;20982;-73
2022/04/01 11:57:05;;;;;;;8.18;1.50;;;16.70;99.90;;;;;;5075374;28;20249;-72
2022/04/01 11:59:39;;;;;;;11.98;1.52;;;16.70;99.90;;;;;;5066754;28;20638;-72
2022/04/01 12:02:13;;;;;;;4.93;1.20;;;16.70;99.90;;;;;;5072051;28;20223;-72
2022/04/01 12:04:44;;;;;;;7.60;1.17;;;16.70;99.90;;;;;;5085172;28;20206;-83
2022/04/01 12:10:03;;;;;;;9.90;1.20;;;16.80;99.90;;;;;;5073439;28;20279;-83
2022/04/01 12:12:34;;;;;;;5.35;1.00;;;16.80;99.90;;;;;;5069100;28;20201;-84
2022/04/01 12:15:09;;;;;;;3.55;1.10;;;16.80;99.90;;;;;;5076095;28;20197;-83
2022/04/01 12:17:51;;;;;;;4.03;0.75;;;16.90;99.90;;;;;;5071630;28;20530;-83
2022/04/01 12:20:22;;;;;;;8.15;1.23;;;16.90;99.90;;;;;;5071254;28;20211;-82
2022/04/01 12:22:54;;;;;;;5.82;1.10;;;17.00;99.90;;;;;;5077847;28;21819;-83
2022/04/01 12:25:25;;;;;;;4.72;0.90;;;17.00;99.90;;;;;;5078011;28;20648;-86
2022/04/01 12:28:00;;;;;;;2.88;0.90;;;17.00;99.90;;;;;;5077654;28;20181;-84
2022/04/01 12:30:38;;;;;;;3.55;1.10;;;17.00;99.90;;;;;;5073329;28;20206;-85
2022/04/01 12:33:10;;;;;;;3.97;0.88;;;17.10;99.90;;;;;;5078320;28;20195;-83
2022/04/01 12:35:50;;;;;;;3.03;0.70;;;17.10;99.90;;;;;;5071465;28;20193;-82
2022/04/01 12:38:22;;;;;;;4.28;0.80;;;17.00;99.90;;;;;;5080367;28;20228;-83
2022/04/01 12:40:54;;;;;;;5.28;0.80;;;17.00;99.90;;;;;;5078900;28;20195;-84
2022/04/01 12:43:44;;;;;;;4.85;0.82;;;17.10;99.90;;;;;;5075448;28;20188;-81
2022/04/01 12:46:19;;;;;;;4.00;0.65;;;17.10;99.90;;;;;;5078271;28;20656;-81
2022/04/01 12:48:52;;;;;;;5.18;0.82;;;17.10;99.90;;;;;;5077042;28;20189;-82
2022/04/01 12:51:25;;;;;;;4.22;0.70;;;17.10;99.90;;;;;;5074220;28;20181;-83
2022/04/01 12:54:01;;;;;;;4.10;0.70;;;17.00;99.90;;;;;;5073157;28;20213;-84
2022/04/01 12:56:34;;;;;;;3.50;0.68;;;17.10;99.90;;;;;;5072382;28;21032;-85
2022/04/01 12:59:09;;;;;;;4.05;0.82;;;17.10;99.90;;;;;;5070074;28;20222;-82
2022/04/01 13:01:42;;;;;;;3.65;0.60;;;17.00;99.90;;;;;;5070573;28;20243;-82
2022/04/01 13:04:19;;;;;;;4.28;0.70;;;17.00;99.90;;;;;;5076809;28;20566;-76
2022/04/01 13:07:13;;;;;;;5.50;1.10;;;17.00;99.90;;;;;;5076038;28;20181;-73
2022/04/01 13:09:54;;;;;;;4.80;0.98;;;16.90;99.90;;;;;;5073446;28;20271;-74
2022/04/01 13:12:25;;;;;;;4.38;0.90;;;16.90;99.90;;;;;;5077369;28;20181;-74
2022/04/01 13:15:01;;;;;;;5.38;0.75;;;16.80;99.90;;;;;;5079411;28;20193;-75
2022/04/01 13:17:43;;;;;;;3.65;0.80;;;16.80;99.90;;;;;;5077697;28;20561;-78
2022/04/01 13:20:15;;;;;;;3.08;1.00;;;16.80;99.90;;;;;;5077258;28;20632;-74
2022/04/01 13:22:46;;;;;;;6.85;1.40;;;16.80;99.90;;;;;;5076707;28;20241;-73
2022/04/01 13:25:17;;;;;;;3.45;0.70;;;16.70;99.90;;;;;;5075417;28;20188;-73
2022/04/01 13:27:49;;;;;;;3.67;0.77;;;16.70;99.90;;;;;;5075300;28;20200;-76
2022/04/01 13:30:20;;;;;;;4.07;0.68;;;16.70;99.90;;;;;;5074551;28;20186;-73